createdAt,value
2018-08-22T00:01:23.480Z,221.97
2018-08-22T00:03:53.877Z,221.00
2018-08-22T00:06:23.974Z,217.37
2018-08-22T00:08:54.340Z,217.40
2018-08-22T00:11:24.539Z,214.32
2018-08-22T00:13:55.026Z,216.42
2018-08-22T00:16:25.209Z,211.68
2018-08-22T00:18:55.540Z,211.75
2018-08-22T00:21:25.756Z,222.60
2018-08-22T00:23:56.068Z,227.78
2018-08-22T00:26:26.340Z,219.93
2018-08-22T00:28:56.716Z,212.23
2018-08-22T00:31:27.000Z,218.00
2018-08-22T00:33:57.383Z,224.80
2018-08-22T00:36:27.630Z,218.27
2018-08-22T00:38:58.187Z,220.25
2018-08-22T00:41:28.417Z,212.30
2018-08-22T00:43:58.614Z,216.73
2018-08-22T00:46:28.937Z,210.28
2018-08-22T00:48:59.298Z,213.75
2018-08-22T00:51:29.572Z,210.43
2018-08-22T00:54:00.222Z,212.30
2018-08-22T00:56:30.486Z,219.55
2018-08-22T00:59:00.745Z,210.85
2018-08-22T01:01:33.355Z,208.70
2018-08-22T01:04:03.822Z,216.48
2018-08-22T01:06:34.211Z,211.12
2018-08-22T01:09:05.170Z,216.78
2018-08-22T01:11:35.808Z,215.95
2018-08-22T01:14:05.891Z,214.60
2018-08-22T01:16:36.084Z,211.72
2018-08-22T01:19:06.295Z,216.30
2018-08-22T01:21:36.494Z,207.60
2018-08-22T01:24:06.947Z,211.75
2018-08-22T01:26:37.163Z,211.57
2018-08-22T01:29:08.068Z,213.12
2018-08-22T01:31:38.221Z,208.00
2018-08-22T01:34:08.681Z,210.40
2018-08-22T01:36:39.389Z,212.42
2018-08-22T01:39:09.942Z,212.10
2018-08-22T01:41:40.110Z,216.55
2018-08-22T01:44:10.346Z,214.05
2018-08-22T01:46:40.549Z,213.68
2018-08-22T01:49:10.687Z,211.03
2018-08-22T01:51:40.994Z,210.00
2018-08-22T01:54:11.329Z,210.10
2018-08-22T01:56:41.963Z,211.00
2018-08-22T01:59:12.392Z,209.85
2018-08-22T02:01:42.754Z,215.47
2018-08-22T02:04:12.982Z,216.02
2018-08-22T02:06:43.375Z,216.38
2018-08-22T02:09:13.574Z,213.40
2018-08-22T02:11:43.778Z,211.52
2018-08-22T02:14:14.394Z,204.55
2018-08-22T02:16:44.647Z,207.92
2018-08-22T02:19:14.937Z,207.27
2018-08-22T02:21:45.226Z,206.55
2018-08-22T02:24:15.442Z,206.75
2018-08-22T02:26:45.771Z,211.92
2018-08-22T02:29:16.116Z,210.63
2018-08-22T02:31:46.660Z,214.97
2018-08-22T02:34:17.088Z,213.57
2018-08-22T02:36:47.366Z,209.37
2018-08-22T02:39:17.699Z,210.70
2018-08-22T02:41:47.815Z,212.80
2018-08-22T02:44:18.146Z,209.90
2018-08-22T02:46:48.469Z,213.80
2018-08-22T02:49:18.728Z,210.53
2018-08-22T02:52:05.573Z,212.70
2018-08-22T02:54:35.694Z,206.28
2018-08-22T02:57:05.934Z,211.90
2018-08-22T02:59:36.040Z,208.40
2018-08-22T03:02:06.743Z,207.37
2018-08-22T03:04:37.049Z,205.40
2018-08-22T03:07:07.214Z,210.60
2018-08-22T03:09:37.448Z,206.07
2018-08-22T03:12:08.094Z,211.45
2018-08-22T03:14:38.377Z,211.70
2018-08-22T03:17:08.693Z,206.82
2018-08-22T03:19:38.935Z,204.25
2018-08-22T03:22:09.548Z,204.03
2018-08-22T03:24:39.885Z,204.78
2018-08-22T03:27:10.084Z,205.65
2018-08-22T03:29:40.665Z,213.70
2018-08-22T03:32:10.930Z,213.45
2018-08-22T03:34:41.156Z,211.18
2018-08-22T03:37:11.370Z,210.38
2018-08-22T03:39:41.636Z,212.00
2018-08-22T03:42:11.919Z,206.45
2018-08-22T03:44:42.647Z,207.20
2018-08-22T03:47:12.823Z,206.55
2018-08-22T03:49:43.019Z,207.75
2018-08-22T03:52:13.497Z,208.05
2018-08-22T03:54:51.764Z,206.47
2018-08-22T03:57:24.023Z,206.00
2018-08-22T03:59:54.701Z,211.72
2018-08-22T04:02:25.179Z,206.20
2018-08-22T04:04:56.075Z,204.60
2018-08-22T04:07:26.358Z,204.60
2018-08-22T04:09:56.716Z,205.52
2018-08-22T04:12:27.060Z,202.05
2018-08-22T04:14:57.604Z,212.10
2018-08-22T04:17:33.692Z,215.07
2018-08-22T04:20:04.047Z,206.40
2018-08-22T04:22:34.641Z,209.67
2018-08-22T04:25:04.943Z,203.98
2018-08-22T04:27:35.555Z,206.05
2018-08-22T04:30:06.160Z,210.13
2018-08-22T04:32:36.477Z,207.87
2018-08-22T04:35:06.876Z,207.07
2018-08-22T04:37:37.470Z,208.68
2018-08-22T04:40:07.838Z,205.35
2018-08-22T04:42:38.215Z,204.40
2018-08-22T04:45:11.407Z,202.57
2018-08-22T04:47:41.804Z,201.92
2018-08-22T04:50:12.194Z,205.70
2018-08-22T04:52:43.355Z,205.22
2018-08-22T04:55:14.024Z,208.38
2018-08-22T04:57:44.457Z,204.68
2018-08-22T05:00:17.987Z,204.13
2018-08-22T05:02:48.463Z,211.03
2018-08-22T05:05:18.824Z,203.35
2018-08-22T05:07:49.163Z,204.70
2018-08-22T05:10:19.472Z,209.35
2018-08-22T05:12:50.186Z,205.75
2018-08-22T05:15:22.249Z,208.32
2018-08-22T05:17:52.629Z,207.40
2018-08-22T05:20:26.530Z,207.27
2018-08-22T05:22:56.889Z,207.95
2018-08-22T05:25:29.815Z,205.55
2018-08-22T05:28:02.880Z,204.82
2018-08-22T05:30:33.451Z,203.05
2018-08-22T05:33:04.561Z,202.28
2018-08-22T05:35:37.786Z,210.97
2018-08-22T05:38:10.424Z,208.13
2018-08-22T05:40:42.343Z,209.83
2018-08-22T05:43:14.493Z,209.95
2018-08-22T05:45:45.285Z,209.90
2018-08-22T05:48:15.847Z,223.05
2018-08-22T05:50:46.155Z,214.55
2018-08-22T05:53:19.222Z,216.97
2018-08-22T05:55:49.753Z,212.20
2018-08-22T05:58:20.256Z,212.65
2018-08-22T06:00:50.524Z,216.80
2018-08-22T06:03:21.005Z,219.20
2018-08-22T06:05:51.451Z,224.55
2018-08-22T06:08:21.963Z,222.75
2018-08-22T06:10:52.551Z,220.07
2018-08-22T06:13:22.648Z,222.48
2018-08-22T06:15:52.856Z,219.18
2018-08-22T06:18:23.553Z,218.00
2018-08-22T06:20:53.785Z,220.90
2018-08-22T06:23:23.924Z,220.07
2018-08-22T06:25:54.222Z,228.47
2018-08-22T06:28:24.507Z,223.60
2018-08-22T06:30:55.745Z,223.87
2018-08-22T06:33:26.321Z,222.67
2018-08-22T06:35:56.912Z,222.45
2018-08-22T06:38:27.099Z,228.02
2018-08-22T06:40:57.506Z,227.28
2018-08-22T06:43:27.753Z,216.50
2018-08-22T06:45:58.452Z,224.20
2018-08-22T06:48:28.926Z,231.70
2018-08-22T06:50:59.359Z,224.70
2018-08-22T06:53:29.653Z,226.45
2018-08-22T06:56:00.024Z,226.32
2018-08-22T06:58:30.888Z,223.47
2018-08-22T07:01:20.646Z,220.48
2018-08-22T07:04:01.476Z,234.30
2018-08-22T07:06:33.013Z,240.47
2018-08-22T07:09:03.969Z,234.70
2018-08-22T07:11:35.049Z,224.45
2018-08-22T07:14:05.555Z,227.75
2018-08-22T07:16:35.835Z,223.62
2018-08-22T07:19:14.410Z,226.40
2018-08-22T07:21:51.397Z,227.85
2018-08-22T07:24:22.472Z,232.83
2018-08-22T07:26:53.037Z,245.20
2018-08-22T07:29:23.358Z,238.28
2018-08-22T07:31:53.744Z,238.03
2018-08-22T07:34:24.683Z,233.23
2018-08-22T07:36:56.153Z,231.90
2018-08-22T07:39:26.714Z,232.62
2018-08-22T07:41:57.092Z,245.70
2018-08-22T07:44:27.329Z,240.40
2018-08-22T07:46:57.660Z,237.35
2018-08-22T07:49:28.211Z,235.02
2018-08-22T07:51:59.134Z,244.37
2018-08-22T07:54:40.037Z,243.42
2018-08-22T07:57:10.636Z,246.05
2018-08-22T07:59:41.150Z,238.97
2018-08-22T08:02:11.566Z,241.90
2018-08-22T08:04:42.009Z,240.03
2018-08-22T08:07:13.185Z,253.47
2018-08-22T08:09:43.352Z,239.10
2018-08-22T08:12:13.737Z,256.52
2018-08-22T08:14:45.708Z,257.75
2018-08-22T08:17:16.307Z,272.73
2018-08-22T08:19:46.675Z,253.83
2018-08-22T08:22:17.375Z,255.75
2018-08-22T08:24:47.828Z,267.30
2018-08-22T08:27:18.448Z,257.27
2018-08-22T08:29:49.143Z,268.88
2018-08-22T08:32:20.587Z,259.27
2018-08-22T08:34:51.102Z,276.77
2018-08-22T08:37:21.438Z,276.70
2018-08-22T08:39:51.910Z,280.57
2018-08-22T08:42:22.745Z,262.88
2018-08-22T08:44:53.316Z,277.45
2018-08-22T08:47:24.636Z,299.05
2018-08-22T08:49:55.035Z,324.52
2018-08-22T08:52:26.613Z,317.05
2018-08-22T08:54:58.998Z,337.45
2018-08-22T08:57:30.185Z,331.40
2018-08-22T09:00:02.326Z,319.80
2018-08-22T09:02:33.543Z,314.77
2018-08-22T09:05:05.815Z,330.48
2018-08-22T09:07:36.888Z,316.50
2018-08-22T09:10:07.944Z,338.20
2018-08-22T09:12:39.522Z,321.40
2018-08-22T09:15:09.876Z,314.98
2018-08-22T09:17:40.229Z,324.20
2018-08-22T09:20:10.632Z,342.52
2018-08-22T09:22:42.001Z,317.62
2018-08-22T09:25:12.574Z,339.55
2018-08-22T09:27:43.754Z,350.95
2018-08-22T09:30:14.962Z,352.60
2018-08-22T09:32:45.611Z,389.93
2018-08-22T09:35:16.049Z,370.55
2018-08-22T09:37:46.411Z,367.27
2018-08-22T09:40:20.090Z,328.60
2018-08-22T09:42:53.204Z,335.73
2018-08-22T09:45:24.279Z,354.95
2018-08-22T09:47:54.820Z,336.05
2018-08-22T09:50:25.273Z,351.48
2018-08-22T09:52:55.770Z,336.62
2018-08-22T09:55:26.381Z,346.15
2018-08-22T09:57:57.253Z,355.07
2018-08-22T10:00:33.717Z,371.48
2018-08-22T10:03:05.855Z,387.85
2018-08-22T10:05:36.131Z,431.63
2018-08-22T10:08:07.703Z,372.05
2018-08-22T10:10:39.796Z,383.50
2018-08-22T10:13:11.662Z,410.63
2018-08-22T10:15:42.637Z,394.55
2018-08-22T10:18:14.858Z,387.02
2018-08-22T10:20:45.312Z,388.85
2018-08-22T10:23:15.677Z,369.27
2018-08-22T10:25:46.098Z,376.45
2018-08-22T10:28:16.384Z,345.95
2018-08-22T10:30:46.606Z,376.90
2018-08-22T10:33:16.963Z,350.82
2018-08-22T10:35:47.516Z,386.05
2018-08-22T10:38:17.754Z,353.60
2018-08-22T10:40:48.216Z,366.20
2018-08-22T10:43:18.601Z,383.43
2018-08-22T10:45:57.796Z,354.93
2018-08-22T10:48:29.794Z,348.35
2018-08-22T10:51:00.481Z,352.93
2018-08-22T10:53:31.115Z,344.87
2018-08-22T10:56:01.991Z,364.82
2018-08-22T10:58:33.180Z,358.13
2018-08-22T11:01:04.088Z,339.68
2018-08-22T11:03:35.438Z,316.75
2018-08-22T11:06:06.168Z,326.70
2018-08-22T11:08:36.477Z,328.48
2018-08-22T11:11:07.066Z,311.23
2018-08-22T11:13:37.649Z,307.73
2018-08-22T11:16:08.009Z,312.90
2018-08-22T11:18:38.428Z,316.60
2018-08-22T11:21:19.589Z,336.30
2018-08-22T11:24:00.576Z,312.60
2018-08-22T11:26:41.726Z,343.88
2018-08-22T11:29:23.083Z,331.27
2018-08-22T11:32:04.816Z,330.43
2018-08-22T11:34:45.746Z,324.77
2018-08-22T11:37:17.264Z,311.90
2018-08-22T11:39:49.311Z,330.23
2018-08-22T11:42:20.044Z,310.13
2018-08-22T11:44:50.604Z,331.00
2018-08-22T11:47:21.074Z,338.20
2018-08-22T11:49:51.859Z,327.00
2018-08-22T11:52:22.093Z,330.30
2018-08-22T11:54:52.640Z,339.00
2018-08-22T11:57:23.984Z,323.57
2018-08-22T11:59:54.368Z,381.08
2018-08-22T12:02:24.929Z,364.82
2018-08-22T12:04:55.405Z,359.32
2018-08-22T12:07:26.336Z,334.23
2018-08-22T12:09:57.272Z,331.70
2018-08-22T12:12:28.045Z,333.60
2018-08-22T12:14:58.639Z,354.38
2018-08-22T12:17:29.024Z,346.77
2018-08-22T12:19:59.443Z,364.20
2018-08-22T12:22:29.940Z,380.10
2018-08-22T12:25:00.781Z,338.60
2018-08-22T12:27:31.355Z,344.93
2018-08-22T12:30:02.118Z,330.85
2018-08-22T12:32:32.540Z,362.30
2018-08-22T12:35:03.452Z,355.45
2018-08-22T12:37:33.977Z,390.65
2018-08-22T12:40:04.713Z,346.35
2018-08-22T12:42:35.077Z,327.22
2018-08-22T12:45:08.828Z,386.07
2018-08-22T12:47:40.610Z,394.37
2018-08-22T12:50:17.024Z,388.90
2018-08-22T12:52:47.872Z,363.27
2018-08-22T12:55:18.207Z,390.50
2018-08-22T12:57:48.652Z,359.83
2018-08-22T13:00:18.995Z,347.63
2018-08-22T13:02:49.444Z,364.05
2018-08-22T13:05:22.575Z,357.35
2018-08-22T13:07:54.240Z,369.48
2018-08-22T13:10:27.927Z,338.60
2018-08-22T13:12:58.374Z,353.10
2018-08-22T13:15:28.975Z,356.38
2018-08-22T13:17:59.760Z,347.50
2018-08-22T13:20:30.252Z,391.42
2018-08-22T13:23:05.812Z,389.27
2018-08-22T13:25:36.218Z,378.20
2018-08-22T13:28:07.564Z,378.30
2018-08-22T13:30:38.848Z,396.57
2018-08-22T13:33:11.155Z,417.37
2018-08-22T13:35:41.792Z,418.55
2018-08-22T13:38:13.467Z,413.40
2018-08-22T13:40:44.442Z,413.20
2018-08-22T13:43:16.615Z,416.85
2018-08-22T13:45:47.269Z,399.70
2018-08-22T13:48:17.671Z,420.90
2018-08-22T13:50:48.840Z,380.05
2018-08-22T13:53:20.375Z,407.55
2018-08-22T13:55:50.860Z,397.37
2018-08-22T13:58:21.385Z,389.27
2018-08-22T14:00:52.271Z,413.25
2018-08-22T14:03:22.731Z,366.25
2018-08-22T14:05:52.847Z,407.20
2018-08-22T14:08:23.157Z,416.55
2018-08-22T14:10:54.869Z,450.07
2018-08-22T14:13:26.171Z,414.65
2018-08-22T14:15:56.799Z,408.12
2018-08-22T14:18:27.102Z,405.87
2018-08-22T14:20:58.047Z,395.55
2018-08-22T14:23:28.427Z,383.68
2018-08-22T14:25:58.956Z,413.87
2018-08-22T14:28:29.769Z,423.45
2018-08-22T14:31:00.607Z,389.48
2018-08-22T14:33:31.430Z,414.60
2018-08-22T14:36:02.083Z,396.43
2018-08-22T14:38:32.547Z,406.60
2018-08-22T14:41:03.135Z,428.92
2018-08-22T14:43:33.524Z,429.77
2018-08-22T14:46:05.580Z,402.85
2018-08-22T14:48:43.295Z,413.37
2018-08-22T14:51:14.079Z,409.20
2018-08-22T14:53:44.331Z,407.30
2018-08-22T14:56:14.726Z,430.03
2018-08-22T14:58:45.353Z,399.90
2018-08-22T15:01:16.791Z,405.57
2018-08-22T15:03:47.485Z,435.67
2018-08-22T15:06:17.889Z,409.80
2018-08-22T15:08:48.394Z,412.48
2018-08-22T15:11:19.422Z,385.05
2018-08-22T15:13:49.760Z,396.77
2018-08-22T15:16:20.172Z,421.03
2018-08-22T15:18:50.593Z,400.90
2018-08-22T15:21:21.223Z,425.02
2018-08-22T15:23:52.429Z,385.52
2018-08-22T15:26:22.750Z,396.25
2018-08-22T15:28:53.767Z,401.95
2018-08-22T15:31:24.449Z,392.15
2018-08-22T15:33:54.959Z,377.70
2018-08-22T15:36:25.584Z,404.48
2018-08-22T15:38:55.967Z,374.48
2018-08-22T15:41:26.613Z,366.48
2018-08-22T15:43:57.115Z,388.57
2018-08-22T15:46:27.755Z,337.30
2018-08-22T15:48:59.015Z,372.25
2018-08-22T15:51:29.689Z,369.77
2018-08-22T15:54:09.711Z,387.10
2018-08-22T15:56:41.619Z,391.95
2018-08-22T15:59:13.447Z,358.55
2018-08-22T16:01:44.057Z,332.83
2018-08-22T16:04:15.549Z,351.75
2018-08-22T16:06:46.162Z,389.20
2018-08-22T16:09:21.589Z,378.65
2018-08-22T16:11:53.905Z,361.18
2018-08-22T16:14:33.012Z,345.50
2018-08-22T16:17:08.838Z,382.57
2018-08-22T16:19:39.951Z,383.07
2018-08-22T16:22:13.119Z,375.50
2018-08-22T16:24:43.964Z,362.08
2018-08-22T16:27:14.224Z,355.37
2018-08-22T16:29:44.765Z,331.13
2018-08-22T16:32:14.967Z,319.30
2018-08-22T16:34:45.684Z,353.20
2018-08-22T16:37:16.770Z,366.98
2018-08-22T16:39:48.805Z,372.85
2018-08-22T16:42:24.931Z,369.32
2018-08-22T16:44:56.395Z,360.50
2018-08-22T16:47:31.859Z,347.02
2018-08-22T16:50:07.596Z,364.68
2018-08-22T16:52:38.313Z,351.95
2018-08-22T16:55:22.788Z,360.77
2018-08-22T16:57:54.155Z,379.95
2018-08-22T17:00:35.976Z,384.18
2018-08-22T17:03:09.721Z,363.48
2018-08-22T17:05:40.176Z,403.02
2018-08-22T17:08:12.609Z,365.80
2018-08-22T17:10:55.187Z,331.82
2018-08-22T17:13:31.481Z,339.72
2018-08-22T17:16:03.137Z,335.32
2018-08-22T17:18:33.911Z,338.35
2018-08-22T17:21:04.648Z,368.90
2018-08-22T17:23:35.222Z,368.90
2018-08-22T17:26:06.094Z,375.62
2018-08-22T17:28:39.736Z,368.70
2018-08-22T17:31:10.994Z,335.95
2018-08-22T17:33:46.233Z,340.85
2018-08-22T17:36:17.024Z,324.18
2018-08-22T17:38:48.852Z,343.10
2018-08-22T17:41:21.016Z,334.77
2018-08-22T17:44:18.940Z,342.50
2018-08-22T17:46:51.731Z,330.90
2018-08-22T17:49:23.366Z,368.02
2018-08-22T17:52:01.405Z,362.70
2018-08-22T17:54:33.371Z,340.18
2018-08-22T17:57:22.697Z,340.43
2018-08-22T17:59:54.873Z,375.90
2018-08-22T18:02:25.609Z,385.25
2018-08-22T18:05:07.080Z,350.02
2018-08-22T18:07:38.053Z,326.18
2018-08-22T18:10:08.891Z,309.48
2018-08-22T18:12:40.329Z,335.10
2018-08-22T18:15:10.810Z,339.65
2018-08-22T18:17:42.281Z,351.88
2018-08-22T18:20:12.875Z,324.18
2018-08-22T18:22:43.560Z,335.35
2018-08-22T18:25:14.096Z,356.85
2018-08-22T18:27:45.096Z,364.40
2018-08-22T18:30:15.631Z,326.20
2018-08-22T18:32:46.826Z,315.48
2018-08-22T18:35:22.048Z,305.18
2018-08-22T18:55:20.438Z,276.05
2018-08-22T18:57:51.089Z,265.05
2018-08-22T19:00:22.835Z,302.45
2018-08-22T19:02:55.193Z,289.02
2018-08-22T19:05:30.182Z,281.82
2018-08-22T19:08:08.676Z,304.52
2018-08-22T19:10:47.286Z,315.18
2018-08-22T19:13:19.776Z,297.57
2018-08-22T19:15:52.108Z,279.13
2018-08-22T19:18:22.548Z,291.98
2018-08-22T19:20:59.098Z,280.80
2018-08-22T19:23:31.561Z,272.40
2018-08-22T19:26:04.144Z,270.12
2018-08-22T19:28:53.491Z,271.62
2018-08-22T19:31:25.630Z,288.57
2018-08-22T19:34:00.457Z,283.13
2018-08-22T19:36:31.172Z,277.18
2018-08-22T19:39:01.759Z,287.77
2018-08-22T19:41:36.179Z,258.38
2018-08-22T19:44:07.622Z,267.40
2018-08-22T19:46:39.563Z,272.93
2018-08-22T19:49:10.298Z,273.45
2018-08-22T19:51:40.714Z,256.17
2018-08-22T19:54:11.006Z,263.12
2018-08-22T19:56:41.724Z,298.95
2018-08-22T19:59:13.778Z,268.35
2018-08-22T20:01:44.837Z,275.18
2018-08-22T20:04:16.421Z,274.73
2018-08-22T20:06:47.210Z,269.00
2018-08-22T20:09:18.016Z,256.45
2018-08-22T20:11:48.871Z,273.00
2018-08-22T20:14:19.469Z,266.12
2018-08-22T20:16:51.303Z,269.77
2018-08-22T20:19:22.496Z,266.12
2018-08-22T20:21:53.395Z,243.90
2018-08-22T20:24:25.192Z,248.40
2018-08-22T20:27:01.280Z,240.22
2018-08-22T20:29:32.429Z,257.50
2018-08-22T20:32:04.497Z,267.50
2018-08-22T20:34:35.192Z,272.30
2018-08-22T20:37:06.267Z,252.95
2018-08-22T20:39:36.850Z,273.07
2018-08-22T20:42:11.789Z,269.75
2018-08-22T20:44:44.170Z,277.40
2018-08-22T20:47:14.972Z,253.75
2018-08-22T20:49:47.352Z,257.50
2018-08-22T20:52:19.311Z,246.53
2018-08-22T20:54:56.555Z,250.18
2018-08-22T20:57:28.411Z,245.82
2018-08-22T20:59:59.443Z,248.03
2018-08-22T21:02:30.735Z,243.55
2018-08-22T21:05:02.559Z,246.37
2018-08-22T21:07:38.809Z,242.43
2018-08-22T21:10:09.683Z,251.35
2018-08-22T21:12:40.682Z,255.62
2018-08-22T21:15:13.740Z,242.53
2018-08-22T21:17:45.371Z,242.20
2018-08-22T21:20:21.246Z,255.90
2018-08-22T21:22:52.643Z,242.80
2018-08-22T21:25:23.654Z,253.20
2018-08-22T21:27:54.923Z,249.02
2018-08-22T21:30:25.557Z,243.78
2018-08-22T21:32:56.164Z,242.53
2018-08-22T21:35:28.206Z,243.97
2018-08-22T21:38:20.724Z,234.52
2018-08-22T21:40:51.435Z,240.57
2018-08-22T21:43:23.102Z,234.80
2018-08-22T21:45:55.661Z,238.55
2018-08-22T21:48:27.872Z,224.70
2018-08-22T21:50:59.662Z,236.30
2018-08-22T21:53:32.688Z,237.70
2018-08-22T21:56:04.488Z,232.67
2018-08-22T21:58:35.312Z,240.22
2018-08-22T22:01:08.535Z,243.97
2018-08-22T22:03:40.678Z,259.90
2018-08-22T22:06:11.355Z,250.22
2018-08-22T22:08:46.398Z,253.25
2018-08-22T22:11:22.991Z,237.80
2018-08-22T22:13:59.137Z,236.52
2018-08-22T22:16:32.120Z,238.25
2018-08-22T22:19:02.966Z,233.63
2018-08-22T22:21:33.812Z,239.35
2018-08-22T22:24:04.940Z,234.87
2018-08-22T22:26:35.629Z,235.93
2018-08-22T22:29:06.466Z,245.20
2018-08-22T22:31:37.191Z,229.20
2018-08-22T22:34:07.995Z,241.40
2018-08-22T22:36:38.380Z,242.45
2018-08-22T22:39:23.284Z,235.13
2018-08-22T22:41:54.064Z,240.37
2018-08-22T22:44:24.629Z,231.97
2018-08-22T22:46:55.155Z,238.37
2018-08-22T22:49:25.647Z,235.85
2018-08-22T22:51:56.425Z,229.68
2018-08-22T22:54:36.322Z,234.62
2018-08-22T22:57:06.488Z,235.05
2018-08-22T22:59:37.036Z,233.23
2018-08-22T23:02:07.602Z,234.72
2018-08-22T23:04:46.278Z,238.43
2018-08-22T23:07:26.290Z,234.47
2018-08-22T23:10:00.588Z,236.75
2018-08-22T23:12:47.866Z,227.00
2018-08-22T23:15:26.670Z,229.00
2018-08-22T23:17:58.869Z,230.25
2018-08-22T23:20:33.511Z,228.90
2018-08-22T23:23:17.123Z,239.53
2018-08-22T23:25:47.542Z,221.62
2018-08-22T23:28:17.978Z,230.70
2018-08-22T23:30:48.471Z,226.92
2018-08-22T23:33:19.146Z,224.45
2018-08-22T23:35:49.632Z,236.57
2018-08-22T23:38:27.413Z,224.20
2018-08-22T23:40:58.011Z,231.35
2018-08-22T23:43:34.636Z,222.80
2018-08-22T23:46:06.656Z,232.35
2018-08-22T23:48:37.633Z,230.15
2018-08-22T23:51:09.985Z,234.47
2018-08-22T23:53:48.887Z,227.13
2018-08-22T23:56:34.089Z,231.93
2018-08-22T23:59:04.455Z,236.47
